sensor_id;sensor_type;location;lat;lon;timestamp;pressure;altitude;pressure_sealevel;temperature;humidity
49949;BME280;35840;45.982;8.890;2023-04-03T00:02:17;98085.66;;;9.62;44.98
49949;BME280;35840;45.982;8.890;2023-04-03T00:04:44;98085.66;;;9.62;46.13
49949;BME280;35840;45.982;8.890;2023-04-03T00:07:11;98076.69;;;9.55;46.89
49949;BME280;35840;45.982;8.890;2023-04-03T00:09:38;98077.88;;;9.49;44.83
49949;BME280;35840;45.982;8.890;2023-04-03T00:12:05;98078.44;;;9.54;44.40
49949;BME280;35840;45.982;8.890;2023-04-03T00:14:32;98086.75;;;9.58;44.24
49949;BME280;35840;45.982;8.890;2023-04-03T00:16:59;98080.25;;;9.67;43.63
49949;BME280;35840;45.982;8.890;2023-04-03T00:19:25;98088.88;;;9.65;45.41
49949;BME280;35840;45.982;8.890;2023-04-03T00:21:52;98090.81;;;9.47;44.63
49949;BME280;35840;45.982;8.890;2023-04-03T00:24:19;98083.91;;;9.62;43.09
49949;BME280;35840;45.982;8.890;2023-04-03T00:26:46;98105.81;;;9.82;43.03
49949;BME280;35840;45.982;8.890;2023-04-03T00:29:13;98088.81;;;9.94;42.69
49949;BME280;35840;45.982;8.890;2023-04-03T00:31:40;98099.66;;;9.99;43.44
49949;BME280;35840;45.982;8.890;2023-04-03T00:34:07;98096.06;;;9.88;45.27
49949;BME280;35840;45.982;8.890;2023-04-03T00:36:33;98086.81;;;9.99;44.38
49949;BME280;35840;45.982;8.890;2023-04-03T00:39:01;98090.72;;;10.05;44.71
49949;BME280;35840;45.982;8.890;2023-04-03T00:41:27;98088.97;;;10.06;45.46
49949;BME280;35840;45.982;8.890;2023-04-03T00:43:54;98080.16;;;9.68;46.62
49949;BME280;35840;45.982;8.890;2023-04-03T00:46:21;98074.84;;;9.71;44.09
49949;BME280;35840;45.982;8.890;2023-04-03T00:48:48;98058.81;;;9.68;44.62
49949;BME280;35840;45.982;8.890;2023-04-03T00:51:22;98078.34;;;9.56;45.03
49949;BME280;35840;45.982;8.890;2023-04-03T00:53:58;98077.56;;;9.68;44.30
49949;BME280;35840;45.982;8.890;2023-04-03T00:56:28;98049.34;;;9.68;44.83
49949;BME280;35840;45.982;8.890;2023-04-03T00:59:02;98073.13;;;9.57;46.11
49949;BME280;35840;45.982;8.890;2023-04-03T01:01:31;98073.56;;;9.78;46.38
49949;BME280;35840;45.982;8.890;2023-04-03T01:03:59;98054.72;;;9.78;45.68
49949;BME280;35840;45.982;8.890;2023-04-03T01:06:30;98068.50;;;9.62;46.46
49949;BME280;35840;45.982;8.890;2023-04-03T01:09:05;98060.25;;;9.72;46.31
49949;BME280;35840;45.982;8.890;2023-04-03T01:11:32;98057.91;;;9.25;46.83
49949;BME280;35840;45.982;8.890;2023-04-03T01:14:00;98062.97;;;9.41;46.52
49949;BME280;35840;45.982;8.890;2023-04-03T01:16:28;98063.97;;;9.39;46.87
49949;BME280;35840;45.982;8.890;2023-04-03T01:18:59;98063.50;;;9.46;45.98
49949;BME280;35840;45.982;8.890;2023-04-03T01:24:34;98049.22;;;9.28;46.74
49949;BME280;35840;45.982;8.890;2023-04-03T01:27:07;98061.69;;;9.20;46.90
49949;BME280;35840;45.982;8.890;2023-04-03T01:29:36;98051.88;;;9.26;47.44
49949;BME280;35840;45.982;8.890;2023-04-03T01:32:04;98047.75;;;9.38;48.31
49949;BME280;35840;45.982;8.890;2023-04-03T01:34:31;98048.84;;;9.48;48.52
49949;BME280;35840;45.982;8.890;2023-04-03T01:36:58;98053.13;;;9.62;47.51
49949;BME280;35840;45.982;8.890;2023-04-03T01:39:25;98056.88;;;9.71;47.79
49949;BME280;35840;45.982;8.890;2023-04-03T01:41:52;98052.69;;;9.56;47.21
49949;BME280;35840;45.982;8.890;2023-04-03T01:44:28;98050.53;;;9.62;47.09
49949;BME280;35840;45.982;8.890;2023-04-03T01:46:55;98041.91;;;9.07;47.90
49949;BME280;35840;45.982;8.890;2023-04-03T01:49:24;98044.00;;;9.29;48.65
49949;BME280;35840;45.982;8.890;2023-04-03T01:51:50;98041.16;;;9.20;48.11
49949;BME280;35840;45.982;8.890;2023-04-03T01:54:17;98041.88;;;8.93;48.61
49949;BME280;35840;45.982;8.890;2023-04-03T01:56:44;98040.44;;;9.03;48.20
49949;BME280;35840;45.982;8.890;2023-04-03T01:59:11;98043.00;;;9.18;47.53
49949;BME280;35840;45.982;8.890;2023-04-03T02:01:39;98040.97;;;9.08;48.56
49949;BME280;35840;45.982;8.890;2023-04-03T02:04:05;98041.63;;;9.12;48.36
49949;BME280;35840;45.982;8.890;2023-04-03T02:06:32;98040.06;;;8.95;47.91
49949;BME280;35840;45.982;8.890;2023-04-03T02:08:59;98037.22;;;8.85;48.10
49949;BME280;35840;45.982;8.890;2023-04-03T02:11:26;98034.81;;;8.68;48.40
49949;BME280;35840;45.982;8.890;2023-04-03T02:13:53;98047.56;;;8.84;48.00
49949;BME280;35840;45.982;8.890;2023-04-03T02:16:20;98038.50;;;8.92;47.30
49949;BME280;35840;45.982;8.890;2023-04-03T02:18:48;98037.47;;;8.66;48.84
49949;BME280;35840;45.982;8.890;2023-04-03T02:21:16;98032.19;;;8.84;48.94
49949;BME280;35840;45.982;8.890;2023-04-03T02:23:42;98024.13;;;9.04;48.09
49949;BME280;35840;45.982;8.890;2023-04-03T02:26:11;98033.19;;;9.10;47.63
49949;BME280;35840;45.982;8.890;2023-04-03T02:28:39;98024.31;;;9.01;47.74
49949;BME280;35840;45.982;8.890;2023-04-03T02:31:08;98031.09;;;9.02;47.63
49949;BME280;35840;45.982;8.890;2023-04-03T02:33:37;98036.31;;;9.01;48.47
49949;BME280;35840;45.982;8.890;2023-04-03T02:36:08;98016.34;;;8.91;48.28
49949;BME280;35840;45.982;8.890;2023-04-03T02:38:36;98019.78;;;8.61;49.73
49949;BME280;35840;45.982;8.890;2023-04-03T02:41:08;98036.72;;;8.64;49.89
49949;BME280;35840;45.982;8.890;2023-04-03T02:43:37;98034.53;;;8.42;50.38
49949;BME280;35840;45.982;8.890;2023-04-03T02:46:05;98029.13;;;8.63;49.60
49949;BME280;35840;45.982;8.890;2023-04-03T02:48:32;98007.06;;;8.74;49.56
49949;BME280;35840;45.982;8.890;2023-04-03T02:50:59;98024.28;;;8.72;48.95
49949;BME280;35840;45.982;8.890;2023-04-03T02:53:26;98022.97;;;8.51;49.21
49949;BME280;35840;45.982;8.890;2023-04-03T02:55:53;98023.19;;;8.76;48.39
49949;BME280;35840;45.982;8.890;2023-04-03T02:58:19;98020.06;;;8.71;48.70
49949;BME280;35840;45.982;8.890;2023-04-03T03:00:46;98020.63;;;8.76;49.15
49949;BME280;35840;45.982;8.890;2023-04-03T03:03:13;98025.50;;;8.81;49.33
49949;BME280;35840;45.982;8.890;2023-04-03T03:05:41;98025.75;;;8.62;50.33
49949;BME280;35840;45.982;8.890;2023-04-03T03:08:08;98023.47;;;8.72;49.45
49949;BME280;35840;45.982;8.890;2023-04-03T03:10:34;98016.03;;;8.67;50.00
49949;BME280;35840;45.982;8.890;2023-04-03T03:13:01;98022.41;;;8.46;48.93
49949;BME280;35840;45.982;8.890;2023-04-03T03:15:29;98019.25;;;8.56;48.39
49949;BME280;35840;45.982;8.890;2023-04-03T03:17:55;98017.69;;;8.68;48.65
49949;BME280;35840;45.982;8.890;2023-04-03T03:20:22;98021.16;;;8.67;47.93
49949;BME280;35840;45.982;8.890;2023-04-03T03:22:49;98019.38;;;8.84;47.75
49949;BME280;35840;45.982;8.890;2023-04-03T03:25:16;98017.31;;;8.74;48.30
49949;BME280;35840;45.982;8.890;2023-04-03T03:27:42;98013.97;;;8.43;49.86
49949;BME280;35840;45.982;8.890;2023-04-03T03:30:09;98014.03;;;8.42;49.94
49949;BME280;35840;45.982;8.890;2023-04-03T03:32:36;98005.31;;;8.30;50.22
49949;BME280;35840;45.982;8.890;2023-04-03T03:35:03;98009.94;;;8.39;50.42
49949;BME280;35840;45.982;8.890;2023-04-03T03:37:31;98014.56;;;8.33;50.90
49949;BME280;35840;45.982;8.890;2023-04-03T03:39:57;98004.16;;;8.36;50.97
49949;BME280;35840;45.982;8.890;2023-04-03T03:42:24;98019.78;;;8.61;49.03
49949;BME280;35840;45.982;8.890;2023-04-03T03:44:51;98012.28;;;8.58;49.98
49949;BME280;35840;45.982;8.890;2023-04-03T03:47:19;98000.28;;;8.59;50.12
49949;BME280;35840;45.982;8.890;2023-04-03T03:49:46;98004.97;;;8.81;49.80
49949;BME280;35840;45.982;8.890;2023-04-03T03:52:13;98012.25;;;8.89;49.43
49949;BME280;35840;45.982;8.890;2023-04-03T03:54:40;98010.38;;;8.62;49.58
49949;BME280;35840;45.982;8.890;2023-04-03T03:57:07;98010.22;;;8.19;51.62
49949;BME280;35840;45.982;8.890;2023-04-03T03:59:35;98013.88;;;8.15;51.92
49949;BME280;35840;45.982;8.890;2023-04-03T04:02:01;98012.16;;;8.15;51.11
49949;BME280;35840;45.982;8.890;2023-04-03T04:04:28;98003.81;;;8.12;50.38
49949;BME280;35840;45.982;8.890;2023-04-03T04:06:55;98009.94;;;8.39;50.75
49949;BME280;35840;45.982;8.890;2023-04-03T04:09:22;98014.03;;;8.58;49.90
49949;BME280;35840;45.982;8.890;2023-04-03T04:11:49;98018.97;;;8.61;50.41
49949;BME280;35840;45.982;8.890;2023-04-03T04:14:16;98016.03;;;8.67;49.98
49949;BME280;35840;45.982;8.890;2023-04-03T04:16:44;98008.44;;;8.66;49.66
49949;BME280;35840;45.982;8.890;2023-04-03T04:19:17;98014.66;;;8.76;49.78
49949;BME280;35840;45.982;8.890;2023-04-03T04:21:44;98009.50;;;8.47;50.81
49949;BME280;35840;45.982;8.890;2023-04-03T04:24:12;98007.69;;;8.49;50.75
49949;BME280;35840;45.982;8.890;2023-04-03T04:26:38;98014.22;;;8.39;51.62
49949;BME280;35840;45.982;8.890;2023-04-03T04:29:09;98015.88;;;8.40;51.83
49949;BME280;35840;45.982;8.890;2023-04-03T04:31:37;97984.53;;;8.20;52.76
49949;BME280;35840;45.982;8.890;2023-04-03T04:34:04;98008.44;;;8.05;53.04
49949;BME280;35840;45.982;8.890;2023-04-03T04:36:33;97998.22;;;8.19;52.51
49949;BME280;35840;45.982;8.890;2023-04-03T04:39:00;98000.09;;;8.32;52.84
49949;BME280;35840;45.982;8.890;2023-04-03T04:41:27;97997.03;;;8.41;52.78
49949;BME280;35840;45.982;8.890;2023-04-03T04:43:54;98001.66;;;8.34;52.60
49949;BME280;35840;45.982;8.890;2023-04-03T04:46:23;97992.25;;;8.35;52.96
49949;BME280;35840;45.982;8.890;2023-04-03T04:48:54;98001.22;;;8.42;52.85
49949;BME280;35840;45.982;8.890;2023-04-03T04:51:22;97990.91;;;8.43;52.81
49949;BME280;35840;45.982;8.890;2023-04-03T04:53:49;98008.44;;;8.35;53.83
49949;BME280;35840;45.982;8.890;2023-04-03T04:56:18;97991.78;;;8.28;53.34
49949;BME280;35840;45.982;8.890;2023-04-03T04:58:45;97996.25;;;8.24;53.61
49949;BME280;35840;45.982;8.890;2023-04-03T05:01:12;97997.00;;;8.26;53.96
49949;BME280;35840;45.982;8.890;2023-04-03T05:03:50;98005.31;;;8.30;53.33
49949;BME280;35840;45.982;8.890;2023-04-03T05:06:18;98008.56;;;8.18;53.82
49949;BME280;35840;45.982;8.890;2023-04-03T05:08:45;98012.84;;;7.87;53.66
49949;BME280;35840;45.982;8.890;2023-04-03T05:11:12;98008.03;;;7.97;52.69
49949;BME280;35840;45.982;8.890;2023-04-03T05:13:40;98007.56;;;7.90;52.41
49949;BME280;35840;45.982;8.890;2023-04-03T05:16:07;98011.78;;;7.91;52.30
49949;BME280;35840;45.982;8.890;2023-04-03T05:18:34;98012.84;;;7.87;52.48
49949;BME280;35840;45.982;8.890;2023-04-03T05:21:06;97999.72;;;7.93;51.98
49949;BME280;35840;45.982;8.890;2023-04-03T05:23:33;98024.72;;;8.04;50.78
49949;BME280;35840;45.982;8.890;2023-04-03T05:26:01;98008.34;;;8.06;50.73
49949;BME280;35840;45.982;8.890;2023-04-03T05:28:30;98009.94;;;8.23;50.93
49949;BME280;35840;45.982;8.890;2023-04-03T05:30:58;98028.47;;;8.28;50.49
49949;BME280;35840;45.982;8.890;2023-04-03T05:33:31;98024.00;;;8.16;51.37
49949;BME280;35840;45.982;8.890;2023-04-03T05:36:04;98012.22;;;8.14;50.76
49949;BME280;35840;45.982;8.890;2023-04-03T05:38:35;98014.84;;;8.28;51.64
49949;BME280;35840;45.982;8.890;2023-04-03T05:41:02;98018.00;;;8.48;50.86
49949;BME280;35840;45.982;8.890;2023-04-03T05:43:29;98014.34;;;8.52;51.99
49949;BME280;35840;45.982;8.890;2023-04-03T05:45:55;98022.81;;;8.38;52.58
49949;BME280;35840;45.982;8.890;2023-04-03T05:48:24;98020.66;;;8.46;52.48
49949;BME280;35840;45.982;8.890;2023-04-03T05:50:52;98016.69;;;8.56;50.84
49949;BME280;35840;45.982;8.890;2023-04-03T05:53:27;98019.84;;;8.46;50.59
49949;BME280;35840;45.982;8.890;2023-04-03T05:55:58;98017.09;;;8.49;50.26
49949;BME280;35840;45.982;8.890;2023-04-03T05:58:25;98015.88;;;8.40;51.21
49949;BME280;35840;45.982;8.890;2023-04-03T06:00:53;98014.66;;;8.61;51.83
49949;BME280;35840;45.982;8.890;2023-04-03T06:03:20;98021.03;;;8.85;51.84
49949;BME280;35840;45.982;8.890;2023-04-03T06:05:47;98014.81;;;8.89;50.93
49949;BME280;35840;45.982;8.890;2023-04-03T06:08:14;97987.41;;;8.75;50.51
49949;BME280;35840;45.982;8.890;2023-04-03T06:10:41;98011.88;;;8.95;49.75
49949;BME280;35840;45.982;8.890;2023-04-03T06:13:07;98010.09;;;9.10;51.23
49949;BME280;35840;45.982;8.890;2023-04-03T06:15:34;98021.38;;;9.22;51.73
49949;BME280;35840;45.982;8.890;2023-04-03T06:18:01;98012.31;;;9.16;52.68
49949;BME280;35840;45.982;8.890;2023-04-03T06:20:28;98007.47;;;9.11;53.68
49949;BME280;35840;45.982;8.890;2023-04-03T06:22:55;98013.13;;;9.17;53.82
49949;BME280;35840;45.982;8.890;2023-04-03T06:25:21;98015.78;;;9.29;52.72
49949;BME280;35840;45.982;8.890;2023-04-03T06:27:48;98013.03;;;9.47;52.77
49949;BME280;35840;45.982;8.890;2023-04-03T06:30:15;98004.75;;;9.56;52.81
49949;BME280;35840;45.982;8.890;2023-04-03T06:32:42;98021.13;;;9.68;52.11
49949;BME280;35840;45.982;8.890;2023-04-03T06:35:09;98022.22;;;9.78;50.96
49949;BME280;35840;45.982;8.890;2023-04-03T06:37:37;98013.72;;;9.91;50.62
49949;BME280;35840;45.982;8.890;2023-04-03T06:40:04;98009.00;;;9.97;50.83
49949;BME280;35840;45.982;8.890;2023-04-03T06:42:31;98024.97;;;10.03;49.38
49949;BME280;35840;45.982;8.890;2023-04-03T06:45:06;98018.22;;;10.14;48.68
49949;BME280;35840;45.982;8.890;2023-04-03T06:47:34;98016.75;;;10.10;48.74
49949;BME280;35840;45.982;8.890;2023-04-03T06:50:01;98030.47;;;10.24;49.15
49949;BME280;35840;45.982;8.890;2023-04-03T06:52:27;98019.25;;;10.25;49.72
49949;BME280;35840;45.982;8.890;2023-04-03T06:54:54;98018.59;;;10.36;50.27
49949;BME280;35840;45.982;8.890;2023-04-03T06:57:24;98014.00;;;10.54;49.08
49949;BME280;35840;45.982;8.890;2023-04-03T06:59:51;98015.25;;;10.61;49.99
49949;BME280;35840;45.982;8.890;2023-04-03T07:02:18;98014.84;;;10.67;50.02
49949;BME280;35840;45.982;8.890;2023-04-03T07:04:45;98009.31;;;10.73;50.18
49949;BME280;35840;45.982;8.890;2023-04-03T07:07:12;98006.84;;;10.84;49.15
49949;BME280;35840;45.982;8.890;2023-04-03T07:09:39;98009.28;;;11.12;46.71
49949;BME280;35840;45.982;8.890;2023-04-03T07:12:06;98010.69;;;11.29;42.58
49949;BME280;35840;45.982;8.890;2023-04-03T07:14:32;98008.41;;;11.37;44.81
49949;BME280;35840;45.982;8.890;2023-04-03T07:16:59;98014.06;;;11.42;45.45
49949;BME280;35840;45.982;8.890;2023-04-03T07:19:26;98013.44;;;11.51;44.92
49949;BME280;35840;45.982;8.890;2023-04-03T07:21:54;98002.75;;;11.69;39.57
49949;BME280;35840;45.982;8.890;2023-04-03T07:24:21;98002.16;;;11.89;37.44
49949;BME280;35840;45.982;8.890;2023-04-03T07:26:52;98002.59;;;12.43;34.73
49949;BME280;35840;45.982;8.890;2023-04-03T07:29:19;98007.72;;;12.67;35.16
49949;BME280;35840;45.982;8.890;2023-04-03T07:31:48;98008.81;;;12.87;34.47
49949;BME280;35840;45.982;8.890;2023-04-03T07:34:15;97999.41;;;12.98;33.12
49949;BME280;35840;45.982;8.890;2023-04-03T07:36:42;98002.13;;;13.07;33.13
49949;BME280;35840;45.982;8.890;2023-04-03T07:39:09;97999.16;;;13.23;32.80
49949;BME280;35840;45.982;8.890;2023-04-03T07:41:36;97998.94;;;13.26;33.57
49949;BME280;35840;45.982;8.890;2023-04-03T07:44:03;98002.09;;;13.30;33.90
49949;BME280;35840;45.982;8.890;2023-04-03T07:46:32;97986.25;;;13.23;32.61
49949;BME280;35840;45.982;8.890;2023-04-03T07:48:58;97997.91;;;13.40;32.04
49949;BME280;35840;45.982;8.890;2023-04-03T07:51:25;97998.25;;;13.47;31.91
49949;BME280;35840;45.982;8.890;2023-04-03T07:53:53;97996.94;;;13.53;32.25
49949;BME280;35840;45.982;8.890;2023-04-03T07:56:20;97997.50;;;13.56;31.84
49949;BME280;35840;45.982;8.890;2023-04-03T07:58:47;97992.09;;;13.71;31.41
49949;BME280;35840;45.982;8.890;2023-04-03T08:01:14;97982.53;;;13.83;30.35
49949;BME280;35840;45.982;8.890;2023-04-03T08:03:41;97985.81;;;13.85;30.30
49949;BME280;35840;45.982;8.890;2023-04-03T08:06:08;97990.97;;;13.85;29.62
49949;BME280;35840;45.982;8.890;2023-04-03T08:08:42;97969.25;;;13.87;29.62
49949;BME280;35840;45.982;8.890;2023-04-03T08:11:09;97985.16;;;14.04;28.99
49949;BME280;35840;45.982;8.890;2023-04-03T08:13:37;97985.50;;;14.10;29.15
49949;BME280;35840;45.982;8.890;2023-04-03T08:16:12;97994.19;;;14.09;29.44
49949;BME280;35840;45.982;8.890;2023-04-03T08:18:39;97985.13;;;14.15;28.77
49949;BME280;35840;45.982;8.890;2023-04-03T08:21:10;97991.63;;;14.31;28.07
49949;BME280;35840;45.982;8.890;2023-04-03T08:23:39;97983.88;;;14.31;27.47
49949;BME280;35840;45.982;8.890;2023-04-03T08:26:13;97980.09;;;14.35;27.47
49949;BME280;35840;45.982;8.890;2023-04-03T08:28:40;97982.84;;;14.43;28.71
49949;BME280;35840;45.982;8.890;2023-04-03T08:31:11;97975.47;;;14.38;28.41
49949;BME280;35840;45.982;8.890;2023-04-03T08:33:39;97979.63;;;14.51;28.46
49949;BME280;35840;45.982;8.890;2023-04-03T08:36:07;97986.69;;;14.49;27.01
49949;BME280;35840;45.982;8.890;2023-04-03T08:38:34;97979.50;;;14.52;29.00
49949;BME280;35840;45.982;8.890;2023-04-03T08:41:20;97978.06;;;14.59;26.95
49949;BME280;35840;45.982;8.890;2023-04-03T08:44:25;97975.72;;;14.56;26.78
49949;BME280;35840;45.982;8.890;2023-04-03T08:47:19;97971.84;;;14.62;26.89
49949;BME280;35840;45.982;8.890;2023-04-03T08:50:01;97968.84;;;14.67;27.22
49949;BME280;35840;45.982;8.890;2023-04-03T08:52:44;97974.75;;;14.69;26.61
49949;BME280;35840;45.982;8.890;2023-04-03T08:55:31;97968.59;;;14.70;27.15
49949;BME280;35840;45.982;8.890;2023-04-03T08:58:22;97970.91;;;14.73;26.42
49949;BME280;35840;45.982;8.890;2023-04-03T09:01:00;97967.03;;;14.88;27.48
49949;BME280;35840;45.982;8.890;2023-04-03T09:03:30;97969.41;;;15.01;25.11
49949;BME280;35840;45.982;8.890;2023-04-03T09:08:43;97969.84;;;15.06;26.85
49949;BME280;35840;45.982;8.890;2023-04-03T09:14:33;97957.22;;;15.13;27.16
49949;BME280;35840;45.982;8.890;2023-04-03T09:20:14;97961.72;;;15.21;26.08
49949;BME280;35840;45.982;8.890;2023-04-03T09:22:47;97960.63;;;15.23;25.64
49949;BME280;35840;45.982;8.890;2023-04-03T09:25:22;97945.63;;;15.17;25.70
49949;BME280;35840;45.982;8.890;2023-04-03T09:27:50;97948.50;;;15.24;24.71
49949;BME280;35840;45.982;8.890;2023-04-03T09:30:23;97950.97;;;15.25;27.44
49949;BME280;35840;45.982;8.890;2023-04-03T09:32:52;97944.31;;;15.32;24.92
49949;BME280;35840;45.982;8.890;2023-04-03T09:35:24;97942.81;;;15.30;26.31
49949;BME280;35840;45.982;8.890;2023-04-03T09:40:50;97944.59;;;15.49;24.07
49949;BME280;35840;45.982;8.890;2023-04-03T09:43:34;97939.28;;;15.50;24.33
49949;BME280;35840;45.982;8.890;2023-04-03T09:46:25;97938.63;;;15.58;24.08
49949;BME280;35840;45.982;8.890;2023-04-03T09:49:04;97916.25;;;15.57;23.11
49949;BME280;35840;45.982;8.890;2023-04-03T09:51:35;97935.91;;;15.70;23.27
49949;BME280;35840;45.982;8.890;2023-04-03T09:54:24;97925.53;;;15.70;22.58
49949;BME280;35840;45.982;8.890;2023-04-03T09:56:53;97928.28;;;15.68;23.26
49949;BME280;35840;45.982;8.890;2023-04-03T09:59:22;97918.16;;;15.75;22.66
49949;BME280;35840;45.982;8.890;2023-04-03T10:04:45;97905.91;;;15.77;22.84
49949;BME280;35840;45.982;8.890;2023-04-03T10:07:33;97906.59;;;15.79;22.64
49949;BME280;35840;45.982;8.890;2023-04-03T10:10:16;97907.28;;;15.81;23.55
49949;BME280;35840;45.982;8.890;2023-04-03T10:12:44;97910.28;;;15.86;22.50
49949;BME280;35840;45.982;8.890;2023-04-03T10:15:16;97910.81;;;15.90;21.67
49949;BME280;35840;45.982;8.890;2023-04-03T10:18:02;97903.84;;;15.90;21.43
49949;BME280;35840;45.982;8.890;2023-04-03T10:20:48;97895.78;;;15.93;21.84
49949;BME280;35840;45.982;8.890;2023-04-03T10:23:43;97897.44;;;15.94;21.77
49949;BME280;35840;45.982;8.890;2023-04-03T10:29:09;97884.88;;;16.09;22.57
49949;BME280;35840;45.982;8.890;2023-04-03T10:34:42;97878.97;;;16.17;19.75
49949;BME280;35840;45.982;8.890;2023-04-03T10:37:26;97868.47;;;16.09;20.37
49949;BME280;35840;45.982;8.890;2023-04-03T10:40:02;97867.25;;;16.13;21.19
49949;BME280;35840;45.982;8.890;2023-04-03T10:42:36;97870.25;;;16.18;19.92
49949;BME280;35840;45.982;8.890;2023-04-03T10:48:07;97866.69;;;16.29;20.64
49949;BME280;35840;45.982;8.890;2023-04-03T10:58:34;97860.31;;;16.51;20.19
49949;BME280;35840;45.982;8.890;2023-04-03T11:01:24;97858.09;;;16.56;19.83
49949;BME280;35840;45.982;8.890;2023-04-03T11:03:57;97857.41;;;16.54;18.39
49949;BME280;35840;45.982;8.890;2023-04-03T11:06:31;97867.25;;;16.60;20.14
49949;BME280;35840;45.982;8.890;2023-04-03T11:09:03;97852.66;;;16.49;18.83
49949;BME280;35840;45.982;8.890;2023-04-03T11:11:39;97837.03;;;16.31;19.06
49949;BME280;35840;45.982;8.890;2023-04-03T11:16:47;97838.13;;;16.66;19.76
49949;BME280;35840;45.982;8.890;2023-04-03T11:19:23;97843.75;;;16.62;18.54
49949;BME280;35840;45.982;8.890;2023-04-03T11:22:29;97830.47;;;16.65;18.82
49949;BME280;35840;45.982;8.890;2023-04-03T11:27:41;97834.16;;;16.62;18.93
49949;BME280;35840;45.982;8.890;2023-04-03T11:30:18;97817.88;;;16.70;19.09
49949;BME280;35840;45.982;8.890;2023-04-03T11:35:47;97824.28;;;16.76;18.20
49949;BME280;35840;45.982;8.890;2023-04-03T11:38:24;97823.44;;;16.75;17.87
49949;BME280;35840;45.982;8.890;2023-04-03T11:40:54;97808.00;;;16.74;19.03
49949;BME280;35840;45.982;8.890;2023-04-03T11:43:26;97808.25;;;16.80;18.77
49949;BME280;35840;45.982;8.890;2023-04-03T11:46:04;97810.84;;;16.90;19.85
49949;BME280;35840;45.982;8.890;2023-04-03T11:53:38;97804.75;;;16.99;17.84
49949;BME280;35840;45.982;8.890;2023-04-03T12:01:56;97790.16;;;16.98;18.63
49949;BME280;35840;45.982;8.890;2023-04-03T12:04:26;97779.16;;;17.04;19.08
49949;BME280;35840;45.982;8.890;2023-04-03T12:07:00;97787.34;;;17.10;17.68
49949;BME280;35840;45.982;8.890;2023-04-03T12:12:28;97780.19;;;17.12;18.78
49949;BME280;35840;45.982;8.890;2023-04-03T12:15:21;97780.19;;;17.12;18.95
49949;BME280;35840;45.982;8.890;2023-04-03T12:17:50;97770.03;;;17.18;17.40
49949;BME280;35840;45.982;8.890;2023-04-03T12:20:52;97780.56;;;17.17;17.74
49949;BME280;35840;45.982;8.890;2023-04-03T12:23:31;97764.31;;;17.15;17.63
49949;BME280;35840;45.982;8.890;2023-04-03T12:26:03;97766.53;;;17.28;18.29
49949;BME280;35840;45.982;8.890;2023-04-03T12:28:37;97762.16;;;17.28;17.96
49949;BME280;35840;45.982;8.890;2023-04-03T12:31:08;97767.28;;;17.20;18.59
49949;BME280;35840;45.982;8.890;2023-04-03T12:34:01;97764.59;;;17.12;18.54
49949;BME280;35840;45.982;8.890;2023-04-03T12:36:42;97760.09;;;17.14;18.57
49949;BME280;35840;45.982;8.890;2023-04-03T12:42:11;97744.88;;;17.19;18.03
49949;BME280;35840;45.982;8.890;2023-04-03T12:44:50;97756.34;;;17.16;18.58
49949;BME280;35840;45.982;8.890;2023-04-03T12:47:33;97744.72;;;17.20;18.09
49949;BME280;35840;45.982;8.890;2023-04-03T12:50:04;97745.25;;;17.24;17.45
49949;BME280;35840;45.982;8.890;2023-04-03T12:52:51;97741.16;;;17.21;17.39
49949;BME280;35840;45.982;8.890;2023-04-03T12:55:21;97742.34;;;17.27;19.25
49949;BME280;35840;45.982;8.890;2023-04-03T12:57:48;97727.63;;;17.18;17.87
49949;BME280;35840;45.982;8.890;2023-04-03T13:00:35;97735.50;;;17.26;17.79
49949;BME280;35840;45.982;8.890;2023-04-03T13:03:03;97730.31;;;17.26;17.96
49949;BME280;35840;45.982;8.890;2023-04-03T13:05:32;97730.75;;;17.40;18.38
49949;BME280;35840;45.982;8.890;2023-04-03T13:08:10;97723.44;;;17.43;19.20
49949;BME280;35840;45.982;8.890;2023-04-03T13:11:02;97724.63;;;17.49;17.99
49949;BME280;35840;45.982;8.890;2023-04-03T13:13:30;97717.78;;;17.48;17.09
49949;BME280;35840;45.982;8.890;2023-04-03T13:15:57;97720.63;;;17.36;17.93
49949;BME280;35840;45.982;8.890;2023-04-03T13:20:58;97719.06;;;17.44;16.35
49949;BME280;35840;45.982;8.890;2023-04-03T13:23:28;97728.94;;;17.40;15.74
49949;BME280;35840;45.982;8.890;2023-04-03T13:25:55;97707.63;;;17.36;15.34
49949;BME280;35840;45.982;8.890;2023-04-03T13:28:27;97704.44;;;17.43;15.77
49949;BME280;35840;45.982;8.890;2023-04-03T13:31:02;97705.69;;;17.57;16.38
49949;BME280;35840;45.982;8.890;2023-04-03T13:33:32;97706.69;;;17.64;17.63
49949;BME280;35840;45.982;8.890;2023-04-03T13:36:08;97702.44;;;17.63;18.32
49949;BME280;35840;45.982;8.890;2023-04-03T13:38:43;97704.09;;;17.64;17.76
49949;BME280;35840;45.982;8.890;2023-04-03T13:41:30;97686.84;;;17.63;15.50
49949;BME280;35840;45.982;8.890;2023-04-03T13:44:15;97688.13;;;17.59;16.33
49949;BME280;35840;45.982;8.890;2023-04-03T13:46:42;97684.09;;;17.64;15.78
49949;BME280;35840;45.982;8.890;2023-04-03T13:51:55;97696.13;;;17.65;17.33
49949;BME280;35840;45.982;8.890;2023-04-03T13:54:36;97687.09;;;17.78;16.84
49949;BME280;35840;45.982;8.890;2023-04-03T13:57:14;97687.22;;;17.76;16.43
49949;BME280;35840;45.982;8.890;2023-04-03T13:59:42;97685.47;;;17.77;16.02
49949;BME280;35840;45.982;8.890;2023-04-03T14:02:18;97674.28;;;17.84;15.87
49949;BME280;35840;45.982;8.890;2023-04-03T14:07:16;97670.94;;;17.92;15.04
49949;BME280;35840;45.982;8.890;2023-04-03T14:09:43;97663.78;;;17.94;16.26
49949;BME280;35840;45.982;8.890;2023-04-03T14:12:37;97664.16;;;17.99;16.22
49949;BME280;35840;45.982;8.890;2023-04-03T14:15:29;97660.59;;;18.00;17.48
49949;BME280;35840;45.982;8.890;2023-04-03T14:17:57;97663.47;;;17.97;16.58
49949;BME280;35840;45.982;8.890;2023-04-03T14:20:26;97634.16;;;17.87;15.00
49949;BME280;35840;45.982;8.890;2023-04-03T14:22:54;97657.81;;;18.10;16.25
49949;BME280;35840;45.982;8.890;2023-04-03T14:25:21;97650.50;;;18.05;17.27
49949;BME280;35840;45.982;8.890;2023-04-03T14:27:53;97646.78;;;18.08;17.08
49949;BME280;35840;45.982;8.890;2023-04-03T14:30:31;97647.09;;;18.05;16.93
49949;BME280;35840;45.982;8.890;2023-04-03T14:32:59;97643.00;;;18.02;15.83